KHLR

Hood AAF Airport

Fort Hood(Killeen), Texas, USA
METAR KHLR 230758Z AUTO 17006KT 10SM CLR 22/20 A2995 RMK AO2 SLP131 T02210196
Observed Flight Rules
May-23 @ 07:58 UTC (49 minutes ago) Visual Flight Rules
Wind Visibility Clouds
170° at 6 knots 10 miles
  • Clear skies
Temperatures Readings
Current 22°C / 72°F
Dewpoint 20°C / 68°F
Humidity 88%
Altimeter 29.95" Hg
Pressure 1013.1 hPa
Elevation 283
METAR KHLR 230758Z AUTO 17006KT 10SM CLR 22/20 A2995 RMK AO2 SLP131 T02210196
Observed Flight Rules
May-23 @ 07:58 UTC
(49 minutes ago)
VFR
Wind Visibility
170° at 6 knots 10 miles
Clouds
  • Clear skies
Temperature Dewpoint
22°C / 72°F 20°C / 68°F
Humidity Altimeter Pressure
88% 29.95" Hg 1013.1 hPa